Latest Weather Observations for Whyalla

IDS60801

Issued at 6:11 pm CDT Wednesday 7 December 2022 (issued every 10 minutes, with the page automatically refreshed every 10 minutes)

About weather observations | Map of weather stations | Latest weather observations for SA | Other Formats
Station Details ID: 018120 Name: WHYALLA AERO Lat: -33.05 Lon: 137.52 Height: 9.3 m
Data from the previous 72 hours. | See also: Recent months at Whyalla
Date/Time
CDT
Temp
°C
App
Temp
°C
Dew
Point
°C
Rel
Hum
%
Delta-T
°C
Wind Press
QNH
hPa
Press
MSL
hPa
Rain since
9am
mm
Dir  Spd
km/h
Gust
km/h
Spd
kts
Gust
kts
07/06:00pm 19.6 11.9 10.3 55 5.0 S 41 57 22 31 1013.2 1013.1 0.0
07/05:30pm 20.1 12.0 10.2 53 5.3 S 43 54 23 29 1013.0 1012.9 0.0
07/05:00pm 20.3 13.4 8.9 48 6.0 S 35 50 19 27 1013.1 1013.0 0.0
07/04:56pm 20.4 13.1 8.7 47 6.1 S 37 56 20 30 1013.1 1013.0 0.0
07/04:30pm 20.4 12.9 9.3 49 5.9 S 39 52 21 28 1012.8 1012.7 0.0
07/04:00pm 20.0 12.4 10.4 54 5.2 S 41 56 22 30 1012.8 1012.7 0.0
07/03:42pm 20.7 13.9 10.5 52 5.5 S 37 56 20 30 1012.8 1012.7 0.0
07/03:30pm 20.4 13.4 9.9 51 5.6 S 37 48 20 26 1012.9 1012.8 0.0
07/03:00pm 20.5 13.6 8.8 47 6.2 S 35 50 19 27 1012.7 1012.6 0.0
07/02:30pm 20.0 11.8 8.4 47 6.0 S 41 56 22 30 1012.7 1012.6 0.0
07/02:00pm 21.3 12.9 8.9 45 6.6 S 43 57 23 31 1012.7 1012.6 0.0
07/01:38pm 20.7 14.1 9.9 50 5.8 S 35 54 19 29 1012.7 1012.6 0.0
07/01:30pm 19.4 12.0 9.9 54 5.1 S 39 54 21 29 1012.8 1012.7 0.0
07/01:00pm 20.3 13.3 10.1 52 5.5 S 37 50 20 27 1012.6 1012.5 0.0
07/12:30pm 19.6 13.1 10.3 55 5.0 S 35 50 19 27 1012.4 1012.3 0.0
07/12:00pm 20.7 14.5 11.3 55 5.2 S 35 48 19 26 1012.4 1012.3 0.0
07/11:34am 20.2 13.7 11.7 58 4.7 S 37 56 20 30 1012.3 1012.2 0.0
07/11:30am 19.6 12.6 11.1 58 4.6 S 39 56 21 30 1012.3 1012.2 0.0
07/11:01am 18.8 12.2 11.4 62 4.0 S 37 56 20 30 1012.1 1012.0 0.0
07/11:00am 18.9 11.9 11.2 61 4.2 S 39 56 21 30 1012.1 1012.0 0.0
07/10:30am 19.8 13.5 11.0 57 4.8 S 35 44 19 24 1011.7 1011.6 0.0
07/10:00am 18.4 12.8 12.2 67 3.4 S 33 44 18 24 1011.4 1011.3 0.0
07/09:30am 18.2 12.3 12.4 69 3.2 S 35 44 19 24 1011.3 1011.2 0.0
07/09:00am 18.0 12.5 13.5 75 2.6 SSW 35 44 19 24 1011.0 1010.9 0.6
07/08:30am 17.7 13.1 13.6 77 2.3 SSW 30 41 16 22 1010.8 1010.7 0.6
07/08:00am 17.6 13.8 13.7 78 2.2 SSW 26 37 14 20 1010.4 1010.3 0.6
07/07:30am 17.1 14.2 14.0 82 1.8 SSW 22 30 12 16 1010.1 1010.0 0.6
07/07:00am 16.6 13.9 13.5 82 1.7 SW 20 28 11 15 1009.6 1009.5 0.6
07/06:30am 16.5 13.6 13.0 80 2.0 SSW 20 30 11 16 1009.2 1009.1 0.6
07/06:00am 16.4 13.6 13.3 82 1.7 SSW 20 26 11 14 1008.5 1008.4 0.6
07/05:30am 16.4 13.6 14.2 87 1.3 SSW 22 30 12 16 1007.9 1007.8 0.6
07/05:00am 16.6 13.3 15.0 90 0.9 SSW 26 33 14 18 1007.3 1007.2 0.6
07/04:30am 17.1 13.8 15.1 88 1.2 SW 26 33 14 18 1007.1 1007.0 0.4
07/04:15am 17.4 14.2 15.2 87 1.3 SW 26 35 14 19 1006.9 1006.8 0.4
07/04:00am 17.3 15.2 15.3 88 1.2 SW 20 28 11 15 1006.6 1006.5 0.4
07/03:59am 17.2 15.1 15.2 88 1.2 SW 20 28 11 15 1006.6 1006.5 0.4
07/03:49am 17.3 14.7 14.9 86 1.4 SW 22 28 12 15 1006.6 1006.5 0.4
07/03:34am 17.6 14.9 14.7 83 1.7 SW 22 35 12 19 1006.0 1005.9 0.4
07/03:30am 17.8 14.8 14.7 82 1.8 SW 24 35 13 19 1006.0 1005.9 0.4
07/03:24am 17.8 14.7 14.5 81 1.9 SW 24 32 13 17 1006.3 1006.2 0.4
07/03:00am 17.7 14.2 14.6 82 1.8 SSW 26 35 14 19 1005.7 1005.6 0.4
07/02:30am 18.6 15.4 15.3 81 1.9 SSW 26 35 14 19 1005.6 1005.5 0.4
07/02:00am 19.0 16.8 15.9 82 1.8 SSW 22 32 12 17 1005.1 1005.0 0.4
07/01:30am 19.2 17.3 15.7 80 2.1 SSW 20 28 11 15 1005.0 1004.9 0.4
07/01:22am 19.3 17.5 15.6 79 2.2 SSW 19 24 10 13 1005.2 1005.1 0.4
07/01:05am 19.8 18.8 14.6 72 3.0 SSW 13 19 7 10 1005.1 1005.0 0.2
07/01:00am 19.8 18.9 14.8 73 2.9 SSW 13 19 7 10 1005.1 1005.0 0.2
07/12:30am 19.9 18.9 14.7 72 3.0 SSW 13 19 7 10 1005.4 1005.3 0.2
07/12:00am 20.0 19.1 14.8 72 3.1 SSW 13 19 7 10 1005.3 1005.2 0.2
 
Date/Time
CDT
Temp
°C
App
Temp
°C
Dew
Point
°C
Rel
Hum
%
Delta-T
°C
Wind Press
QNH
hPa
Press
MSL
hPa
Rain since
9am
mm
Dir  Spd
km/h
Gust
km/h
Spd
kts
Gust
kts
06/11:30pm 20.1 20.0 14.9 72 3.1 SW 9 13 5 7 1005.4 1005.3 0.2
06/11:00pm 20.1 20.1 15.1 73 2.9 S 9 13 5 7 1005.0 1004.9 0.2
06/10:30pm 20.8 20.4 16.2 75 2.8 SW 13 17 7 9 1006.0 1005.9 0.2
06/10:00pm 20.9 20.3 16.7 77 2.5 S 15 20 8 11 1004.5 1004.4 0.2
06/09:30pm 23.0 21.8 16.1 65 4.2 W 17 20 9 11 1005.8 1005.7 0.2
06/09:00pm 23.5 25.3 15.5 60 4.8 CALM 0 2 0 1 1004.5 1004.4 0.2
06/08:30pm 23.2 23.7 16.5 66 4.1 E 9 9 5 5 1004.5 1004.4 0.2
06/08:00pm 22.7 23.8 17.2 71 3.4 NNE 7 9 4 5 1005.9 1005.8 0.2
06/07:30pm 23.4 23.5 15.5 61 4.8 E 9 11 5 6 1004.5 1004.4 0.2
06/07:00pm 23.1 22.9 15.7 63 4.5 ESE 11 13 6 7 1005.2 1005.1 0.2
06/06:30pm 24.0 23.9 15.0 57 5.4 ENE 9 13 5 7 1005.4 1005.3 0.2
06/06:00pm 24.1 23.3 15.1 57 5.4 E 13 17 7 9 1005.2 1005.1 0.2
06/05:30pm 25.7 24.1 11.5 41 8.1 NE 11 17 6 9 1005.3 1005.2 0.2
06/05:00pm 25.0 24.7 12.6 46 7.1 ENE 6 11 3 6 1005.6 1005.5 0.2
06/04:30pm 24.3 23.4 12.6 48 6.7 NE 9 13 5 7 1006.0 1005.9 0.2
06/04:00pm 23.2 21.9 12.5 51 6.1 E 11 17 6 9 1005.9 1005.8 0.2
06/03:30pm 22.7 20.8 12.9 54 5.6 E 15 20 8 11 1006.1 1006.0 0.2
06/03:26pm 22.5 20.5 12.7 54 5.6 E 15 20 8 11 1006.0 1005.9 0.2
06/03:00pm 22.3 22.0 12.8 55 5.4 S 6 13 3 7 1008.1 1008.0 0.2
06/02:30pm 21.7 19.9 13.3 59 4.8 ESE 15 20 8 11 1007.4 1007.3 0.2
06/02:00pm 23.1 20.1 12.7 52 6.0 ESE 20 26 11 14 1007.3 1007.2 0.2
06/01:30pm 23.5 20.5 12.5 50 6.3 ESE 20 26 11 14 1007.6 1007.5 0.2
06/01:00pm 24.1 21.3 12.7 49 6.6 ESE 19 24 10 13 1008.4 1008.3 0.2
06/12:30pm 25.0 23.8 12.9 47 7.0 E 11 19 6 10 1008.8 1008.7 0.2
06/12:00pm 23.8 23.1 13.1 51 6.2 N 9 17 5 9 1009.5 1009.4 0.2
06/11:30am 22.7 22.0 13.2 55 5.5 NNW 9 15 5 8 1010.2 1010.1 0.2
06/11:00am 21.7 21.3 12.3 55 5.3 NE 6 11 3 6 1010.4 1010.3 0.0
06/10:30am 20.7 19.6 13.2 62 4.3 N 11 15 6 8 1010.0 1009.9 0.0
06/10:00am 20.6 21.7 14.7 69 3.5 ESE 2 6 1 3 1009.9 1009.8 0.0
06/09:30am 19.7 19.6 13.4 67 3.6 S 6 7 3 4 1009.7 1009.6 0.0
06/09:00am 18.5 17.9 15.6 83 1.7 WSW 13 19 7 10 1010.5 1010.4 0.2
06/08:36am 18.4 17.8 14.5 78 2.3 ESE 11 17 6 9 1008.8 1008.7 0.2
06/08:30am 19.2 17.6 14.0 72 3.0 W 15 28 8 15 1010.1 1010.0 0.0
06/08:18am 20.5 20.0 12.5 60 4.5 ESE 7 11 4 6 1009.7 1009.6 0.0
06/08:00am 20.4 19.9 12.6 61 4.4 SE 7 13 4 7 1009.3 1009.2 0.0
06/07:30am 20.6 19.4 11.5 56 5.0 ESE 9 15 5 8 1008.9 1008.8 0.0
06/07:00am 18.5 17.8 13.1 71 3.0 SE 9 13 5 7 1009.1 1009.0 0.0
06/06:30am 16.0 15.2 11.6 75 2.4 SSE 7 11 4 6 1009.4 1009.3 0.0
06/06:00am 16.3 15.5 11.7 74 2.5 SSE 7 50 4 27 1009.2 1009.1 0.0
06/05:30am 17.0 15.9 11.9 72 2.8 SE 9 9 5 5 1009.0 1008.9 0.0
06/05:00am 17.3 15.8 12.0 71 2.9 SE 11 13 6 7 1009.0 1008.9 0.0
06/04:30am 17.2 14.9 11.9 71 2.9 SSE 15 20 8 11 1009.3 1009.2 0.0
06/04:00am 17.2 15.8 12.1 72 2.8 SSE 11 17 6 9 1009.6 1009.5 0.0
06/03:30am 17.1 15.6 11.8 71 2.9 S 11 15 6 8 1009.6 1009.5 0.0
06/03:00am 17.6 16.0 11.4 67 3.4 SSE 11 15 6 8 1009.9 1009.8 0.0
06/02:30am 17.9 15.8 11.2 65 3.6 SE 13 19 7 10 1010.1 1010.0 0.0
06/02:00am 18.1 15.4 10.5 61 4.1 SSE 15 22 8 12 1010.9 1010.8 0.0
06/01:30am 18.5 15.3 10.1 58 4.5 SE 17 24 9 13 1011.4 1011.3 0.0
06/01:00am 18.7 15.6 10.3 58 4.5 SSE 17 22 9 12 1011.9 1011.8 0.0
06/12:30am 18.5 16.0 12.3 67 3.4 SSE 17 22 9 12 1012.4 1012.3 0.0
06/12:00am 18.0 15.0 12.7 71 3.0 S 20 30 11 16 1013.0 1012.9 0.0
 
Date/Time
CDT
Temp
°C
App
Temp
°C
Dew
Point
°C
Rel
Hum
%
Delta-T
°C
Wind Press
QNH
hPa
Press
MSL
hPa
Rain since
9am
mm
Dir  Spd
km/h
Gust
km/h
Spd
kts
Gust
kts
05/11:30pm 17.8 13.1 12.0 69 3.2 SSE 28 37 15 20 1012.8 1012.7 0.0
05/11:00pm 17.9 13.6 11.9 68 3.3 S 26 35 14 19 1013.5 1013.4 0.0
05/10:30pm 18.5 15.4 12.3 67 3.4 SSE 20 30 11 16 1014.1 1014.0 0.0
05/10:00pm 18.7 15.1 12.0 65 3.7 SSE 22 30 12 16 1014.3 1014.2 0.0
05/09:30pm 19.0 15.5 12.3 65 3.7 S 22 32 12 17 1014.8 1014.7 0.0
05/09:00pm 19.5 15.7 12.3 63 4.0 S 24 35 13 19 1014.0 1013.9 0.0
05/08:30pm 19.9 15.2 11.9 60 4.4 SSE 28 39 15 21 1013.1 1013.0 0.0
05/08:00pm 20.5 16.2 12.0 58 4.7 SSE 26 37 14 20 1012.4 1012.3 0.0
05/07:30pm 20.4 16.1 14.3 68 3.5 S 30 41 16 22 1012.2 1012.1 0.0
05/07:00pm 20.5 15.4 13.7 65 3.9 SSW 33 44 18 24 1012.6 1012.5 0.0
05/06:30pm 21.1 14.8 13.5 62 4.4 S 39 54 21 29 1012.0 1011.9 0.0
05/06:00pm 21.1 14.4 12.3 57 5.0 S 39 50 21 27 1012.1 1012.0 0.0
05/05:30pm 21.2 15.4 12.6 58 4.9 SSW 35 46 19 25 1012.7 1012.6 0.0
05/05:00pm 22.0 16.1 12.5 54 5.4 SSW 35 46 19 25 1013.0 1012.9 0.0
05/04:30pm 21.3 14.3 11.1 52 5.6 S 39 50 21 27 1012.8 1012.7 0.0
05/04:00pm 21.6 16.2 12.2 55 5.3 SSW 32 43 17 23 1013.9 1013.8 0.0
05/03:30pm 21.6 14.8 11.9 54 5.4 S 39 50 21 27 1013.4 1013.3 0.0
05/03:00pm 20.5 15.0 12.0 58 4.7 SSW 32 43 17 23 1014.7 1014.6 0.0
05/02:30pm 20.9 15.3 12.1 57 4.9 S 33 43 18 23 1014.7 1014.6 0.0
05/02:00pm 21.5 15.6 12.4 56 5.1 S 35 44 19 24 1015.6 1015.5 0.0
05/01:30pm 21.5 15.7 11.5 53 5.6 SSW 33 44 18 24 1015.9 1015.8 0.0
05/01:00pm 21.2 16.5 10.7 51 5.7 S 26 41 14 22 1016.2 1016.1 0.0
05/12:30pm 20.9 15.5 9.5 48 6.1 S 28 37 15 20 1016.0 1015.9 0.0
05/12:10pm 22.0 16.8 10.2 47 6.4 S 28 46 15 25 1015.7 1015.6 0.0
05/12:00pm 21.4 15.9 10.6 50 5.9 SSE 30 37 16 20 1015.8 1015.7 0.0
05/11:30am 21.2 15.5 11.0 52 5.6 S 32 41 17 22 1015.1 1015.0 0.0
05/11:00am 21.1 15.6 10.6 51 5.7 SSE 30 41 16 22 1015.2 1015.1 0.0
05/10:30am 20.2 14.7 11.9 59 4.6 SSE 32 44 17 24 1014.9 1014.8 0.0
05/10:00am 19.8 14.9 12.6 63 4.0 SSE 30 39 16 21 1015.1 1015.0 0.0
05/09:30am 19.0 13.4 11.6 62 4.1 SSE 32 44 17 24 1014.8 1014.7 0.0
05/09:00am 18.7 13.4 12.5 67 3.5 SSE 32 41 17 22 1014.6 1014.5 0.0
05/08:30am 18.7 13.7 12.2 66 3.6 SSE 30 39 16 21 1014.4 1014.3 0.0
05/08:00am 18.2 13.6 12.4 69 3.2 SSE 28 39 15 21 1014.5 1014.4 0.0
05/07:30am 17.6 12.9 12.1 70 3.0 SSE 28 37 15 20 1013.9 1013.8 0.0
05/07:00am 17.7 13.8 12.2 70 3.0 SSE 24 35 13 19 1014.0 1013.9 0.0
05/06:30am 17.3 12.7 12.4 73 2.7 SSE 28 39 15 21 1014.1 1014.0 0.0
05/06:00am 17.4 13.3 12.7 74 2.6 SSE 26 33 14 18 1013.4 1013.3 0.0
05/05:30am 17.6 13.9 12.7 73 2.7 SSE 24 35 13 19 1013.5 1013.4 0.0
05/05:00am 17.9 14.9 13.6 76 2.4 SSE 22 33 12 18 1013.1 1013.0 0.0
05/04:30am 18.0 15.1 13.9 77 2.3 SSE 22 33 12 18 1013.0 1012.9 0.0
05/04:00am 18.2 14.9 14.1 77 2.3 S 24 33 13 18 1013.5 1013.4 0.0
05/03:30am 17.9 14.5 13.8 77 2.3 SSW 24 30 13 16 1013.6 1013.5 0.0
05/03:00am 17.9 14.9 13.8 77 2.3 SW 22 30 12 16 1014.3 1014.2 0.0
05/02:30am 17.6 15.4 14.3 81 1.9 SW 19 22 10 12 1014.0 1013.9 0.0
05/02:00am 18.1 15.7 13.8 76 2.4 SW 19 26 10 14 1014.3 1014.2 0.0
05/01:30am 18.0 15.4 13.9 77 2.3 SW 20 28 11 15 1014.5 1014.4 0.0
05/01:00am 18.0 15.0 13.7 76 2.4 SSW 22 32 12 17 1014.7 1014.6 0.0
05/12:30am 18.2 14.2 14.1 77 2.3 SSW 28 39 15 21 1015.4 1015.3 0.0
05/12:00am 18.4 15.3 14.5 78 2.3 SSW 24 33 13 18 1015.6 1015.5 0.0
 
Date/Time
CDT
Temp
°C
App
Temp
°C
Dew
Point
°C
Rel
Hum
%
Delta-T
°C
Wind Press
QNH
hPa
Press
MSL
hPa
Rain since
9am
mm
Dir  Spd
km/h
Gust
km/h
Spd
kts
Gust
kts
04/11:30pm 18.4 14.5 14.5 78 2.3 SSW 28 35 15 19 1015.5 1015.4 0.0
04/11:13pm 18.5 14.3 14.6 78 2.3 SSW 30 48 16 26 1015.5 1015.4 0.0
04/11:00pm 18.6 14.0 14.5 77 2.4 SSW 32 46 17 25 1015.8 1015.7 0.0
04/10:30pm 18.8 14.5 14.5 76 2.5 SSW 30 41 16 22 1015.3 1015.2 0.0
04/10:00pm 18.6 12.8 13.9 74 2.7 SSW 37 46 20 25 1014.8 1014.7 0.0
04/09:30pm 19.2 14.0 14.5 74 2.7 SSW 35 46 19 25 1014.4 1014.3 0.0
04/09:00pm 19.5 15.5 14.1 71 3.1 SSW 28 39 15 21 1014.3 1014.2 0.0
04/08:30pm 20.0 14.6 13.9 68 3.5 SW 35 46 19 25 1012.3 1012.2 0.0
04/08:00pm 21.0 16.0 13.9 64 4.1 SSW 33 46 18 25 1011.1 1011.0 0.0
04/07:44pm 21.4 15.5 13.6 61 4.5 SW 37 56 20 30 1010.6 1010.5 0.0
04/07:30pm 22.5 17.4 13.8 58 5.1 SSW 33 48 18 26 1010.3 1010.2 0.0
04/07:04pm 25.4 18.9 10.4 39 8.3 SSW 35 54 19 29 1009.8 1009.7 0.0
04/07:00pm 25.7 20.0 11.1 40 8.2 SSW 32 44 17 24 1009.8 1009.7 0.0
04/06:30pm 26.6 21.6 15.0 49 7.0 SSW 35 44 19 24 1009.1 1009.0 0.0

Other formats

Comma delimited format used in spreadsheet applications
http://www.bom.gov.au/fwo/IDS60801/IDS60801.95664.axf

JavaScript Object Notation format (JSON) in row-major order
http://www.bom.gov.au/fwo/IDS60801/IDS60801.95664.json

Data quality

Most of these data are generated automatically and are frequently updated. Quality checks on data are not normally performed. It is possible for incorrect values to appear. Refer to information at About Latest Weather Observations and please check the disclaimer before using these data.